• Join FlightAware (Why Join?)
  • Login
  • US Flag 
12:03AM EDT


 

Airport Tracker/Info


-or-


 

Live Flight TrackerFlight Track Log ✈ AFL150 ✈ 20-Jul-2013 ✈ UUEE / SVO - MUHA / HAV

Flight Track Log - Related Links

Times and Time Zones

All times are in EDT time to prevent confusion due to time zone crossing. See the AFL150 flight status page for this flight to view local times or setup timezone preferences in your user account.

Time Position Orientation Groundspeed Altitude Reporting Facility
EDT Latitude Longitude Course Direction KTS MPH feet Rate Location/Type
06:26AM 55.9640 37.3660 254° West 178 205 1,900  Level FlightAware
06:26AM 55.9600 37.3380 256° West 175 201 2,700 1,740 Climbing FlightAware
06:26AM 55.9550 37.3010 256° West 196 226 3,100 1,140 Climbing FlightAware
06:27AM 55.9460 37.2410 255° West 232 267 3,700 1,560 Climbing FlightAware
06:27AM 55.9480 37.1600 273° West 260 299 4,900 2,100 Climbing FlightAware
06:28AM 55.9570 37.1080 287° West 263 303 6,000 2,520 Climbing FlightAware
06:28AM 55.9650 37.0790 296° West 269 310 6,600 1,920 Climbing FlightAware
06:29AM 55.9800 37.0270 297° West 286 329 7,300 2,040 Climbing FlightAware
06:29AM 55.9940 36.9740 295° West 290 334 8,300 2,400 Climbing FlightAware
06:29AM 56.0110 36.9090 295° West 298 343 9,500 1,920 Climbing FlightAware
06:30AM 56.0390 36.8050 296° West 324 373 10,700 1,260 Climbing FlightAware
06:31AM 56.0630 36.7150 296° West 357 411 11,200 1,380 Climbing FlightAware
06:32AM 56.0960 36.5910 296° West 375 432 12,600 1,980 Climbing FlightAware
06:32AM 56.1220 36.4920 295° West 382 440 13,900 1,920 Climbing FlightAware
06:33AM 56.1530 36.3760 296° West 391 450 15,300 1,860 Climbing FlightAware
06:34AM 56.1880 36.2410 295° West 402 463 16,600 1,980 Climbing FlightAware
06:34AM 56.2170 36.1540 301° West 417 480 17,600 1,620 Climbing FlightAware
06:35AM 56.2760 36.0920 330° Northwest 435 501 18,500 1,500 Climbing FlightAware
06:35AM 56.3690 36.0160 336° Northwest 451 519 19,700 1,620 Climbing FlightAware
06:36AM 56.4450 35.9490 334° Northwest 457 526 20,800 1,560 Climbing FlightAware
06:37AM 56.5310 35.8730 334° Northwest 467 537 22,000 1,500 Climbing FlightAware
06:38AM 56.6080 35.8040 334° Northwest 472 543 23,000 1,320 Climbing FlightAware
06:38AM 56.6870 35.7330 334° Northwest 480 552 23,800 1,140 Climbing FlightAware
06:39AM 56.7580 35.6700 334° Northwest 486 559 24,600 1,080 Climbing FlightAware
06:40AM 56.8900 35.5510 334° Northwest 497 572 25,800 1,020 Climbing FlightAware
06:41AM 57.0050 35.4460 334° Northwest 510 587 26,600 1,020 Climbing FlightAware
06:41AM 57.0900 35.3690 334° Northwest 519 597 27,200 1,200 Climbing FlightAware
06:42AM 57.1750 35.2900 333° Northwest 515 593 28,200 1,260 Climbing FlightAware
06:43AM 57.2610 35.2110 334° Northwest 519 597 28,900 1,020 Climbing FlightAware
06:43AM 57.3460 35.1320 333° Northwest 520 598 29,600 960 Climbing FlightAware
06:44AM 57.4540 35.0320 334° Northwest 523 602 30,500 1,020 Climbing FlightAware
06:45AM 57.5400 34.9510 333° Northwest 516 594 31,400 960 Climbing FlightAware
06:46AM 57.6350 34.8610 333° Northwest 517 595 32,000 360 Climbing FlightAware
06:47AM 57.7510 34.7510 333° Northwest 515 593 32,000  Level FlightAware
06:47AM 57.8250 34.6800 333° Northwest 514 592 32,000  Level FlightAware
06:48AM 57.9080 34.5990 333° Northwest 514 592 32,000  Level FlightAware
06:49AM 58.0040 34.5080 333° Northwest 512 589 32,000 60 Level FlightAware
06:49AM 58.0780 34.4350 332° Northwest 509 586 32,100 540 Climbing FlightAware
06:50AM 58.1670 34.3290 328° Northwest 502 578 32,800 600 Climbing FlightAware
06:51AM 58.2300 34.2330 321° Northwest 509 586 33,000 720 Climbing FlightAware
06:51AM 58.3230 34.0990 323° Northwest 504 580 33,800 780 Climbing FlightAware
06:52AM 58.3870 34.0020 322° Northwest 506 582 34,000 120 Climbing FlightAware
06:53AM 58.4460 33.9110 321° Northwest 506 582 34,000  Level FlightAware
06:54AM 58.5340 33.7770 322° Northwest 505 581 34,000  Level FlightAware
06:54AM 58.5950 33.6820 321° Northwest 505 581 34,000  Level FlightAware
06:55AM 58.6530 33.5880 320° Northwest 504 580 34,000  Level FlightAware
06:56AM 58.7240 33.4780 321° Northwest 504 580 34,000  Level FlightAware
06:57AM 58.8160 33.3280 320° Northwest 504 580 34,000  Level FlightAware
06:58AM 58.9690 33.0090 313° West 499 574 34,000  Level FlightAware
06:59AM 59.0810 32.7880 315° West 497 572 34,000  Level FlightAware
06:59AM 59.1480 32.6550 315° West 497 572 34,000  Level FlightAware
07:00AM 59.2140 32.5260 315° West 496 571 34,000  Level FlightAware
07:01AM 59.3240 32.3040 314° West 494 568 34,000  Level FlightAware
07:03AM 59.4270 32.0690 311° West 491 565 34,000  Level FlightAware
07:03AM 59.4890 31.8580 300° West 487 560 34,000  Level FlightAware
07:04AM 59.5210 31.7150 294° West 485 558 34,000  Level FlightAware
07:05AM 59.5620 31.5340 294° West 481 554 34,000  Level FlightAware
07:05AM 59.5970 31.3720 293° West 481 554 34,000  Level FlightAware
07:06AM 59.6270 31.2310 293° West 482 555 34,000  Level FlightAware
07:07AM 59.6460 31.0660 283° West 479 551 34,000  Level FlightAware
07:07AM 59.6450 30.9100 269° West 479 551 34,000  Level FlightAware
07:08AM 59.6440 30.7350 269° West 480 552 34,000  Level FlightAware
07:09AM 59.6410 30.4950 269° West 483 556 34,000  Level FlightAware
07:09AM 59.6390 30.2960 269° West 486 559 34,000  Level FlightAware
07:10AM 59.6380 30.1250 269° West 486 559 34,000  Level FlightAware
07:11AM 59.6350 29.9400 268° West 487 560 34,000  Level FlightAware
07:12AM 59.6320 29.7420 268° West 487 560 34,000  Level FlightAware
07:12AM 59.6290 29.5700 268° West 487 560 34,000  Level FlightAware
07:13AM 59.6250 29.3640 268° West 486 559 34,000  Level FlightAware
07:14AM 59.6230 29.1960 269° West 484 557 34,000  Level FlightAware
07:14AM 59.6360 29.0410 279° West 482 555 34,000  Level FlightAware
07:15AM 59.6560 28.8930 285° West 480 552 34,000  Level FlightAware
07:16AM 59.6780 28.7330 285° West 480 552 34,000  Level FlightAware
07:16AM 59.7020 28.5350 284° West 480 552 34,000  Level FlightAware
07:17AM 59.7340 28.2770 284° West 480 552 34,000  Level FlightAware
07:18AM 59.7520 28.1260 283° West 478 550 34,000  Level FlightAware
07:18AM 59.7700 27.9730 283° West 478 550 34,000  Level FlightAware
07:19AM 59.7890 27.8080 283° West 479 551 34,000  Level FlightAware
07:20AM 59.8040 27.6780 283° West 480 552 34,000  Level FlightAware
07:20AM 59.8250 27.5010 283° West 480 552 34,000  Level FlightAware
07:21AM 59.8460 27.3130 283° West 479 551 34,000  Level FlightAware
07:22AM 59.8780 27.0240 283° West 478 550 34,000  Level FlightAware
07:23AM 59.8970 26.8520 282° West 478 550 34,000  Level FlightAware
07:24AM 59.9180 26.6620 283° West 476 548 34,000  Level FlightAware
07:24AM 59.9360 26.4920 282° West 474 545 34,000  Level FlightAware
07:25AM 59.9640 26.3240 288° West 469 540 34,000  Level FlightAware
07:26AM 60.0070 26.1510 296° West 463 533 34,000  Level FlightAware
07:26AM 60.0520 26.0040 302° West 464 534 34,000  Level FlightAware
07:27AM 60.1010 25.8420 301° West 465 535 34,000  Level FlightAware
07:28AM 60.1410 25.7100 301° West 466 536 34,000  Level FlightAware
07:28AM 60.1840 25.5650 301° West 466 536 34,000  Level FlightAware
07:29AM 60.2290 25.4140 301° West 466 536 34,000  Level FlightAware
07:30AM 60.2770 25.2510 301° West 462 532 34,000  Level FlightAware
07:30AM 60.3120 25.1330 301° West 460 529 34,000  Level FlightAware
07:31AM 60.3500 25.0010 300° West 460 529 34,000  Level FlightAware
07:32AM 60.4000 24.8290 301° West 460 529 34,000  Level FlightAware
07:32AM 60.4420 24.6830 300° West 460 529 34,000  Level FlightAware
07:33AM 60.5010 24.4760 300° West 460 529 34,000  Level FlightAware
07:34AM 60.5440 24.3260 300° West 460 529 34,000  Level FlightAware
07:34AM 60.5820 24.1900 300° West 460 529 34,000  Level FlightAware
07:35AM 60.6240 24.0430 300° West 459 528 34,000  Level FlightAware
07:36AM 60.6610 23.9070 299° West 455 524 34,000  Level FlightAware
07:37AM 60.7020 23.7590 300° West 453 521 34,000  Level FlightAware
07:37AM 60.7450 23.6050 300° West 447 514 34,000  Level FlightAware
07:38AM 60.7980 23.4100 299° West 441 507 34,000  Level FlightAware
07:39AM 60.8400 23.2530 299° West 441 507 34,000  Level FlightAware
07:39AM 60.8700 23.1340 297° West 442 509 34,000  Level FlightAware
07:40AM 60.9090 22.9690 296° West 439 505 34,000  Level FlightAware
07:41AM 60.9450 22.8160 296° West 437 503 34,000  Level FlightAware
07:41AM 60.9770 22.6830 296° West 434 499 34,000  Level FlightAware
07:42AM 61.0110 22.5380 296° West 432 497 34,000  Level FlightAware
07:43AM 61.0530 22.3580 296° West 432 497 34,000  Level FlightAware
07:43AM 61.0860 22.2180 296° West 432 497 34,000  Level FlightAware
07:44AM 61.1230 22.0550 295° West 421 484 34,000  Level FlightAware
07:45AM 61.1540 21.9230 296° West 419 482 34,000  Level FlightAware
07:45AM 61.1940 21.7440 295° West 418 481 34,000  Level FlightAware
07:46AM 61.2260 21.6010 295° West 418 481 34,000  Level FlightAware
07:47AM 61.2560 21.4710 296° West 417 480 34,000  Level FlightAware
07:47AM 61.2900 21.3150 294° West 415 478 34,000  Level FlightAware
07:48AM 61.3200 21.1830 295° West 413 475 34,000  Level FlightAware
07:49AM 61.3460 21.0650 295° West 406 467 34,000  Level FlightAware
07:50AM 61.3800 20.9050 294° West 407 468 34,000  Level FlightAware
07:50AM 61.4080 20.7760 294° West 406 467 34,000  Level FlightAware
07:51AM 61.4430 20.6150 295° West 405 466 34,000  Level FlightAware
07:51AM 61.4750 20.4680 295° West 414 476 34,000  Level FlightAware
07:52AM 61.5040 20.3290 294° West 418 481 34,000  Level FlightAware
07:53AM 61.5390 20.1630 294° West 416 479 34,000  Level FlightAware
07:53AM 61.5590 20.0700 294° West 415 478 34,000  Level FlightAware
07:54AM 61.5900 19.9210 294° West 416 479 34,000  Level FlightAware
07:55AM 61.6210 19.7700 293° West 418 481 34,000  Level FlightAware
07:55AM 61.6590 19.5840 293° West 422 486 34,000  Level FlightAware
07:56AM 61.6960 19.4020 293° West 423 487 34,000  Level FlightAware
07:57AM 61.7240 19.2660 294° West 423 487 34,000  Level FlightAware
07:57AM 61.7430 19.1680 292° West 423 487 34,000  Level FlightAware
07:58AM 61.7770 19.0010 293° West 424 488 34,000  Level FlightAware
07:59AM 61.8020 18.8720 292° West 425 489 34,000  Level FlightAware
08:00AM 61.8460 18.6460 293° West 428 493 34,000  Level FlightAware
08:00AM 61.8790 18.4780 293° West 430 495 34,000  Level FlightAware
08:01AM 61.9100 18.3170 292° West 429 494 34,000  Level FlightAware
08:02AM 61.9430 18.1410 292° West 429 494 34,000  Level FlightAware
08:02AM 61.9670 18.0180 293° West 429 494 34,000  Level FlightAware
08:03AM 61.9950 17.8670 292° West 430 495 34,000  Level FlightAware
08:04AM 62.0220 17.7230 292° West 432 497 34,000  Level FlightAware
08:04AM 62.0460 17.5920 291° West 432 497 34,000  Level FlightAware
08:05AM 62.0750 17.4350 292° West 432 497 34,000  Level FlightAware
08:06AM 62.1180 17.2030 292° West 434 499 34,000  Level FlightAware
08:06AM 62.1450 17.0520 291° West 435 501 34,000  Level FlightAware
08:07AM 62.1760 16.8760 291° West 435 501 34,000  Level FlightAware
08:08AM 62.2060 16.7060 291° West 434 499 34,000  Level FlightAware
08:08AM 62.2360 16.5370 291° West 433 498 34,000  Level FlightAware
08:09AM 62.2600 16.4020 291° West 435 501 34,000  Level FlightAware
08:10AM 62.2830 16.2690 290° West 435 501 34,000  Level FlightAware
08:10AM 62.3200 16.0530 290° West 437 503 34,000  Level FlightAware
08:11AM 62.3420 15.9230 290° West 438 504 34,000  Level FlightAware
08:12AM 62.3740 15.7340 290° West 441 507 34,000  Level FlightAware
08:12AM 62.4010 15.5710 290° West 442 509 34,000  Level FlightAware
08:13AM 62.4290 15.4010 290° West 443 510 34,000  Level FlightAware
08:14AM 62.4670 15.1640 289° West 443 510 34,000  Level FlightAware
08:16AM 62.5240 14.8150 290° West 444 511 34,000  Level FlightAware
08:16AM 62.5620 14.5760 289° West 443 510 34,000  Level FlightAware
08:17AM 62.5900 14.3930 288° West 443 510 34,000  Level FlightAware
08:18AM 62.6170 14.2240 289° West 443 510 34,000  Level FlightAware
08:18AM 62.6430 14.0540 288° West 442 509 34,000  Level FlightAware
08:19AM 62.6650 13.9050 288° West 443 510 34,000  Level FlightAware
08:20AM 62.6790 13.8140 289° West 433 498 34,000  Level FlightAware
08:20AM 62.7030 13.6530 288° West 417 480 34,000  Level FlightAware
08:21AM 62.7270 13.4950 288° West 424 488 34,000  Level FlightAware
08:22AM 62.7680 13.2110 288° West 429 494 34,000  Level FlightAware
08:23AM 62.7940 13.0340 288° West 426 490 34,000  Level FlightAware
08:23AM 62.8180 12.8670 288° West 428 493 34,000  Level FlightAware
08:24AM 62.8420 12.6990 287° West 434 499 34,000  Level FlightAware
08:24AM 62.8630 12.5480 287° West 428 493 34,000  Level FlightAware
08:25AM 62.8840 12.3960 287° West 435 501 34,000  Level FlightAware
08:26AM 62.9070 12.2280 287° West 434 499 34,000  Level FlightAware
08:27AM 62.9310 12.0540 287° West 437 503 34,000  Level FlightAware
08:27AM 62.9490 11.9170 286° West 439 505 34,000  Level FlightAware
08:28AM 62.9850 11.6510 287° West 442 509 34,000  Level FlightAware
08:29AM 63.0080 11.4760 286° West 443 510 34,000  Level FlightAware
08:29AM 63.0310 11.2990 286° West 444 511 34,000  Level FlightAware
08:30AM 63.0550 11.1120 286° West 446 513 34,000  Level FlightAware
08:31AM 63.0770 10.9380 286° West 449 517 34,000  Level FlightAware
08:31AM 63.0910 10.8230 285° West 449 517 34,000  Level FlightAware
08:32AM 63.1160 10.6290 286° West 446 513 34,000  Level FlightAware
08:33AM 63.1410 10.4270 285° West 448 516 34,000  Level FlightAware
08:34AM 63.1670 10.2070 285° West 441 507 34,000  Level FlightAware
08:34AM 63.1900 10.0150 285° West 447 514 34,000  Level FlightAware
08:35AM 63.2110 9.8370 285° West 445 512 34,000  Level FlightAware
08:36AM 63.2320 9.6570 285° West 444 511 34,000  Level FlightAware
08:36AM 63.2530 9.4770 285° West 439 505 34,000  Level FlightAware
08:37AM 63.2770 9.2640 284° West 442 509 34,000  Level FlightAware
08:38AM 63.2970 9.0850 284° West 448 516 34,000  Level FlightAware
08:39AM 63.3130 8.9430 284° West 444 511 34,000  Level FlightAware
08:39AM 63.3370 8.7260 284° West 441 507 34,000  Level FlightAware
08:40AM 63.3600 8.5130 284° West 443 510 34,000  Level FlightAware
08:41AM 63.3810 8.3130 283° West 444 511 34,000  Level FlightAware
08:42AM 63.4070 8.0680 283° West 444 511 34,000  Level FlightAware
08:42AM 63.4270 7.8730 283° West 444 511 34,000  Level FlightAware
08:43AM 63.4410 7.7330 283° West 444 511 34,000  Level FlightAware
08:44AM 63.4610 7.5340 283° West 442 509 34,000  Level FlightAware
08:44AM 63.4740 7.4040 283° West 442 509 34,000  Level FlightAware
08:45AM 63.4900 7.2450 283° West 440 506 34,000  Level FlightAware
08:46AM 63.5140 6.9900 282° West 439 505 34,000  Level FlightAware
08:47AM 63.5340 6.7760 282° West 438 504 34,000  Level FlightAware
08:47AM 63.5540 6.5670 282° West 438 504 34,000  Level FlightAware
08:48AM 63.5700 6.3840 281° West 437 503 34,000  Level FlightAware
08:49AM 63.5870 6.1960 282° West 437 503 34,000  Level FlightAware
08:49AM 63.6000 6.0510 281° West 437 503 34,000  Level FlightAware
08:50AM 63.6170 5.8620 282° West 435 501 34,000  Level FlightAware
08:51AM 63.6350 5.6550 281° West 434 499 34,000  Level FlightAware
08:51AM 63.6520 5.4450 280° West 434 499 34,000  Level FlightAware
08:52AM 63.6670 5.2640 281° West 433 498 34,000  Level FlightAware
08:53AM 63.6850 5.0440 281° West 430 495 34,000  Level FlightAware
08:54AM 63.7000 4.8660 281° West 429 494 34,000  Level FlightAware
08:54AM 63.7090 4.7470 280° West 428 493 34,000  Level FlightAware
08:55AM 63.7290 4.4740 280° West 427 491 34,000  Level FlightAware
08:56AM 63.7450 4.2780 281° West 427 491 34,000  Level FlightAware
08:57AM 63.7670 3.9720 279° West 428 493 34,000  Level FlightAware
08:58AM 63.7850 3.7290 280° West 428 493 34,000  Level FlightAware
08:59AM 63.7930 3.6170 279° West 428 493 34,000  Level FlightAware
08:59AM 63.8040 3.4630 279° West 428 493 34,000  Level FlightAware
09:00AM 63.8270 3.1030 278° West 425 489 34,000  Level FlightAware
09:01AM 63.8360 2.9680 279° West 425 489 34,000  Level FlightAware
09:02AM 63.8520 2.7090 278° West 425 489 34,000  Level FlightAware
09:03AM 63.8610 2.5630 278° West 425 489 34,000  Level FlightAware
09:03AM 63.8690 2.4270 278° West 425 489 34,000  Level FlightAware
09:04AM 63.8800 2.2540 278° West 425 489 34,000  Level FlightAware
09:05AM 63.8940 2.0250 278° West 425 489 34,000  Level FlightAware
09:06AM 63.9030 1.8780 278° West 425 489 34,000  Level FlightAware
09:07AM 63.9120 1.7390 278° West 425 489 34,000  Level FlightAware
09:07AM 63.9200 1.6070 278° West 425 489 34,000  Level FlightAware
09:08AM 63.9310 1.4270 278° West 425 489 34,000  Level FlightAware
09:09AM 63.9390 1.2910 278° West 425 489 34,000  Level FlightAware
09:09AM 63.9480 1.1550 279° West 425 489 34,000  Level FlightAware
09:12AM 63.9699 0.5418 275° West  Level Estimated
09:12AM 63.9980 0.0410 275° West 420 483 34,000  Level FlightAware
09:13AM 64.0070 -0.1740 276° West 420 483 34,000  Level FlightAware
09:14AM 64.0120 -0.3090 275° West 420 483 34,000  Level FlightAware
09:14AM 64.0160 -0.4770 273° West 416 479 34,000  Level FlightAware
09:15AM 64.0210 -0.6540 274° West 415 478 34,000  Level FlightAware
09:16AM 64.0290 -0.9170 274° West 416 479 34,000  Level FlightAware
09:16AM 64.0350 -1.1290 274° West 416 479 34,000  Level FlightAware
09:17AM 64.0390 -1.3010 273° West 416 479 34,000  Level FlightAware
09:18AM 64.0440 -1.4780 274° West 416 479 34,000  Level FlightAware
09:18AM 64.0470 -1.6160 273° West 416 479 34,000  Level FlightAware
09:19AM 64.0530 -1.8710 273° West 416 479 34,000  Level FlightAware
09:20AM 64.0560 -2.0540 272° West 417 480 34,000  Level FlightAware
09:21AM 64.0600 -2.2290 273° West 417 480 34,000  Level FlightAware
09:21AM 64.0630 -2.4010 272° West 417 480 34,000  Level FlightAware
09:22AM 64.0680 -2.6640 273° West 416 479 34,000  Level FlightAware
09:23AM 64.0710 -2.8820 272° West 416 479 34,000  Level FlightAware
09:24AM 64.0730 -3.0280 272° West 416 479 34,000  Level FlightAware
09:25AM 64.0760 -3.2770 272° West 420 483 34,000  Level FlightAware
09:26AM 64.0780 -3.4600 272° West 420 483 34,000  Level FlightAware
09:26AM 64.0810 -3.7130 272° West 419 482 34,000  Level FlightAware
09:27AM 64.0820 -3.8940 271° West 418 481 34,000  Level FlightAware
09:28AM 64.0830 -4.0670 271° West 418 481 34,000  Level FlightAware
09:28AM 64.0840 -4.2630 271° West 417 480 34,000  Level FlightAware
09:29AM 64.0850 -4.4170 271° West 416 479 34,000  Level FlightAware
09:30AM 64.0860 -4.5620 271° West 415 478 34,000  Level FlightAware
09:31AM 64.0860 -4.8150 270° West 415 478 34,000  Level FlightAware
09:32AM 64.0860 -5.0480 270° West 414 476 34,000  Level FlightAware
09:32AM 64.0860 -5.2680 270° West 415 478 34,000  Level FlightAware
09:33AM 64.0860 -5.4610 270° West 416 479 34,000  Level FlightAware
09:34AM 64.0850 -5.6410 269° West 416 479 34,000  Level FlightAware
09:34AM 64.0840 -5.8280 269° West 417 480 34,000  Level FlightAware
09:35AM 64.0830 -5.9930 269° West 418 481 34,000  Level FlightAware
09:36AM 64.0810 -6.1900 269° West 418 481 34,000  Level FlightAware
09:37AM 64.0800 -6.3400 269° West 418 481 34,000  Level FlightAware
09:37AM 64.0770 -6.5610 268° West 418 481 34,000  Level FlightAware
09:38AM 64.0750 -6.8190 269° West 420 483 34,000  Level FlightAware
09:39AM 64.0720 -7.0230 268° West 422 486 34,000  Level FlightAware
09:40AM 64.0690 -7.2240 268° West 422 486 34,000  Level FlightAware
09:40AM 64.0660 -7.4300 268° West 422 486 34,000  Level FlightAware
09:41AM 64.0640 -7.5580 268° West 422 486 34,000  Level FlightAware
09:42AM 64.0600 -7.7100 267° West 422 486 34,000  Level FlightAware
09:42AM 64.0570 -7.8620 267° West 422 486 34,000  Level FlightAware
09:43AM 64.0530 -8.0430 267° West 422 486 34,000  Level FlightAware
09:44AM 64.0490 -8.1800 266° West 422 486 34,000  Level FlightAware
09:44AM 64.0460 -8.3160 267° West 422 486 34,000  Level FlightAware
09:45AM 64.0410 -8.5510 267° West 422 486 34,000  Level FlightAware
09:46AM 64.0380 -8.6950 267° West 422 486 34,000  Level FlightAware
09:47AM 64.0330 -8.8760 266° West 422 486 34,000  Level FlightAware
09:47AM 64.0300 -9.0160 267° West 422 486 34,000  Level FlightAware
09:48AM 64.0250 -9.2430 267° West 422 486 34,000  Level FlightAware
09:49AM 64.0220 -9.3800 267° West 422 486 34,000  Level FlightAware
09:50AM 64.0190 -9.5120 267° West 422 486 34,000  Level FlightAware
09:51AM 63.9900 -10.1650 265° West 427 491 34,000  Level FlightAware
09:51AM 63.9780 -10.3540 262° West 428 493 34,000  Level FlightAware
09:52AM 63.9660 -10.5390 262° West 428 493 34,000  Level FlightAware
09:53AM 63.9550 -10.6920 261° West 428 493 34,000  Level FlightAware
09:53AM 63.9440 -10.8600 262° West 429 494 34,000  Level FlightAware
09:54AM 63.9330 -11.0190 261° West 429 494 34,000  Level FlightAware
09:55AM 63.9180 -11.2340 261° West 429 494 34,000  Level FlightAware
09:55AM 63.9020 -11.4470 260° West 431 496 34,000  Level FlightAware
09:56AM 63.8880 -11.6450 261° West 432 497 34,000  Level FlightAware
09:57AM 63.8750 -11.8180 260° West 432 497 34,000  Level FlightAware
09:57AM 63.8620 -11.9780 260° West 432 497 34,000  Level FlightAware
09:58AM 63.8500 -12.1350 260° West 432 497 34,000  Level FlightAware
09:59AM 63.8360 -12.3210 260° West 433 498 34,000  Level FlightAware
09:59AM 63.8200 -12.5140 259° West 434 499 34,000  Level FlightAware
10:00AM 63.8090 -12.6490 260° West 434 499 34,000  Level FlightAware
10:01AM 63.7890 -12.8980 260° West 435 501 34,000  Level FlightAware
10:02AM 63.7750 -13.0610 259° West 434 499 34,000  Level FlightAware
10:02AM 63.7580 -13.2560 259° West 434 499 34,000  Level FlightAware
10:03AM 63.7400 -13.4680 259° West 436 502 34,000  Level FlightAware
10:04AM 63.7210 -13.6740 258° West 436 502 34,000  Level FlightAware
10:04AM 63.7050 -13.8600 259° West 435 501 34,000  Level FlightAware
10:05AM 63.6920 -14.0030 258° West 436 502 34,000  Level FlightAware
10:06AM 63.6760 -14.1770 258° West 436 502 34,000  Level FlightAware
10:06AM 63.6620 -14.3240 258° West 436 502 34,000  Level FlightAware
10:07AM 63.6450 -14.5040 258° West 436 502 34,000  Level FlightAware
10:08AM 63.6270 -14.6900 258° West 437 503 34,000  Level FlightAware
10:08AM 63.6030 -14.9330 258° West 436 502 34,000  Level FlightAware
10:09AM 63.5840 -15.1240 257° West 436 502 34,000  Level FlightAware
10:10AM 63.5680 -15.2850 257° West 436 502 34,000  Level FlightAware
10:10AM 63.5500 -15.4530 257° West 437 503 34,000  Level FlightAware
10:11AM 63.5310 -15.6380 257° West 437 503 34,000  Level FlightAware
10:12AM 63.5090 -15.8460 257° West 437 503 34,000  Level FlightAware
10:13AM 63.4940 -15.9870 257° West 438 504 34,000  Level FlightAware
10:14AM 63.4700 -16.2090 256° West 438 504 34,000  Level FlightAware
10:14AM 63.4510 -16.3840 256° West 439 505 34,000  Level FlightAware
10:15AM 63.4330 -16.5500 256° West 439 505 34,000  Level FlightAware
10:15AM 63.4090 -16.7580 256° West 440 506 34,000  Level FlightAware
10:16AM 63.3910 -16.9170 256° West 439 505 34,000  Level FlightAware
10:17AM 63.3720 -17.0850 256° West 439 505 34,000  Level FlightAware
10:17AM 63.3550 -17.2300 255° West 440 506 34,000  Level FlightAware
10:18AM 63.3340 -17.4080 255° West 441 507 34,000  Level FlightAware
10:19AM 63.3060 -17.6430 255° West 440 506 34,000  Level FlightAware
10:20AM 63.2810 -17.8520 255° West 441 507 34,000  Level FlightAware
10:20AM 63.2570 -18.0430 254° West 442 509 34,000  Level FlightAware
10:21AM 63.2370 -18.2080 255° West 442 509 34,000  Level FlightAware
10:22AM 63.2140 -18.3910 254° West 441 507 34,000  Level FlightAware
10:22AM 63.1960 -18.5300 254° West 441 507 34,000  Level FlightAware
10:23AM 63.1730 -18.7140 255° West 441 507 34,000  Level FlightAware
10:24AM 63.1550 -18.8550 254° West 442 509 34,000  Level FlightAware
10:24AM 63.1300 -19.0450 254° West 441 507 34,000  Level FlightAware
10:25AM 63.1040 -19.2370 253° West 441 507 34,000  Level FlightAware
10:26AM 63.0740 -19.4660 254° West 441 507 34,000  Level FlightAware
10:26AM 63.0490 -19.6440 253° West 442 509 34,000  Level FlightAware
10:27AM 63.0240 -19.8260 253° West 443 510 34,000  Level FlightAware
10:28AM 63.0040 -19.9830 254° West 444 511 34,000  Level FlightAware
10:28AM 62.9910 -20.1460 260° West 447 514 34,000  Level FlightAware
10:29AM 62.9810 -20.3100 262° West 447 514 34,000  Level FlightAware
10:30AM 62.9660 -20.5380 262° West 448 516 34,000  Level FlightAware
10:31AM 62.9500 -20.7800 262° West 449 517 34,000  Level FlightAware
10:32AM 62.9270 -21.1140 262° West 452 520 34,000  Level FlightAware
10:33AM 62.9120 -21.3230 261° West 451 519 34,000  Level FlightAware
10:33AM 62.8970 -21.5320 261° West 451 519 34,000  Level FlightAware
10:34AM 62.8840 -21.7100 261° West 450 518 34,000  Level FlightAware
10:35AM 62.8710 -21.8800 261° West 450 518 34,000  Level FlightAware
10:35AM 62.8580 -22.0500 261° West 451 519 34,000  Level FlightAware
10:36AM 62.8450 -22.2140 260° West 450 518 34,000  Level FlightAware
10:37AM 62.8340 -22.3560 260° West 449 517 34,000  Level FlightAware
10:38AM 62.8170 -22.5670 260° West 448 516 34,000  Level FlightAware
10:38AM 62.8050 -22.7180 260° West 449 517 34,000  Level FlightAware
10:39AM 62.7870 -22.9310 260° West 449 517 34,000  Level FlightAware
10:40AM 62.7660 -23.1820 260° West 449 517 34,000  Level FlightAware
10:40AM 62.7520 -23.3480 260° West 449 517 34,000  Level FlightAware
10:41AM 62.7360 -23.5340 259° West 449 517 34,000  Level FlightAware
10:42AM 62.7180 -23.7280 259° West 449 517 34,000  Level FlightAware
10:42AM 62.7060 -23.8690 260° West 448 516 34,000  Level FlightAware
10:43AM 62.6880 -24.0620 259° West 446 513 34,000  Level FlightAware
10:44AM 62.6730 -24.2190 258° West 445 512 34,000  Level FlightAware
10:44AM 62.6530 -24.4380 259° West 447 514 34,000  Level FlightAware
10:45AM 62.6320 -24.6590 258° West 447 514 34,000  Level FlightAware
10:46AM 62.6150 -24.8320 258° West 448 516 34,000  Level FlightAware
10:47AM 62.5980 -25.0000 258° West 450 518 34,000  Level FlightAware
10:47AM 62.5790 -25.1930 258° West 447 514 34,000  Level FlightAware
10:48AM 62.5560 -25.4180 258° West 446 513 34,000  Level FlightAware
10:49AM 62.5380 -25.5940 258° West 448 516 34,000  Level FlightAware
10:49AM 62.5210 -25.7520 257° West 448 516 34,000  Level FlightAware
10:50AM 62.5040 -25.9130 257° West 447 514 34,000  Level FlightAware
10:51AM 62.4810 -26.1230 257° West 446 513 34,000  Level FlightAware
10:52AM 62.4630 -26.2900 257° West 448 516 34,000  Level FlightAware
10:52AM 62.4340 -26.5500 257° West 450 518 34,000  Level FlightAware
10:53AM 62.4140 -26.7310 257° West 451 519 34,000  Level FlightAware
10:54AM 62.3970 -26.8830 256° West 452 520 34,000  Level FlightAware
10:55AM 62.3760 -27.0660 256° West 452 520 34,000  Level FlightAware
10:55AM 62.3550 -27.2400 255° West 452 520 34,000  Level FlightAware
10:56AM 62.3330 -27.4300 256° West 456 525 34,000  Level FlightAware
10:57AM 62.3080 -27.6390 256° West 459 528 34,000  Level FlightAware
10:57AM 62.2920 -27.7710 255° West 462 532 34,000  Level FlightAware
10:58AM 62.2650 -27.9900 255° West 462 532 34,000  Level FlightAware
10:59AM 62.2370 -28.2170 255° West 461 531 34,000  Level FlightAware
10:59AM 62.2150 -28.3930 255° West 460 529 34,000  Level FlightAware
11:00AM 62.1900 -28.5860 255° West 459 528 34,000  Level FlightAware
11:01AM 62.1650 -28.7770 254° West 459 528 34,000  Level FlightAware
11:02AM 62.1490 -28.9060 255° West 460 529 34,000  Level FlightAware
11:02AM 62.1230 -29.1010 254° West 467 537 34,000  Level FlightAware
11:03AM 62.1040 -29.2420 254° West 466 536 34,000  Level FlightAware
11:04AM 62.0610 -29.5640 254° West 462 532 34,000  Level FlightAware
11:05AM 62.0380 -29.7310 254° West 462 532 34,000  Level FlightAware
11:05AM 62.0160 -29.8890 254° West 463 533 34,000  Level FlightAware
11:06AM 61.9880 -30.0880 253° West 463 533 34,000  Level FlightAware
11:07AM 61.9560 -30.3070 253° West 463 533 34,000  Level FlightAware
11:08AM 61.9370 -30.4400 253° West 463 533 34,000  Level FlightAware
11:08AM 61.9170 -30.5770 253° West 463 533 34,000  Level FlightAware
11:09AM 61.8970 -30.7170 253° West 463 533 34,000  Level FlightAware
11:10AM 61.8720 -30.8870 253° West 463 533 34,000  Level FlightAware
11:10AM 61.8520 -31.0310 254° West 463 533 34,000  Level FlightAware
11:11AM 61.8300 -31.1790 253° West 463 533 34,000  Level FlightAware
11:12AM 61.8110 -31.3110 253° West 463 533 34,000  Level FlightAware
11:12AM 61.7850 -31.4960 254° West 463 533 34,000  Level FlightAware
11:13AM 61.7710 -31.5880 252° West 463 533 34,000  Level FlightAware
11:14AM 61.7460 -31.7640 253° West 463 533 34,000  Level FlightAware
11:14AM 61.7270 -31.8930 253° West 463 533 34,000  Level FlightAware
11:15AM 61.7000 -32.0770 253° West 463 533 34,000  Level FlightAware
11:18AM 61.5506 -32.6453 250° West  Level FlightAware Approximate
11:19AM 61.5086 -32.8845 250° West  Level FlightAware Approximate
11:20AM 61.4661 -33.1231 250° West  Level FlightAware Approximate
11:21AM 61.4233 -33.3611 249° West  Level FlightAware Approximate
11:22AM 61.3800 -33.5984 249° West  Level FlightAware Approximate
11:23AM 61.3364 -33.8351 249° West  Level FlightAware Approximate
11:24AM 61.2923 -34.0711 249° West  Level FlightAware Approximate
11:25AM 61.2478 -34.3064 249° West  Level FlightAware Approximate
11:26AM 61.2029 -34.5410 248° West  Level FlightAware Approximate
11:27AM 61.1576 -34.7750 248° West  Level FlightAware Approximate
11:28AM 61.1119 -35.0083 248° West  Level FlightAware Approximate
11:29AM 61.0658 -35.2410 248° West  Level FlightAware Approximate
11:30AM 61.0193 -35.4729 248° West  Level FlightAware Approximate
11:31AM 60.9724 -35.7042 247° West  Level FlightAware Approximate
11:32AM 60.9251 -35.9348 247° West  Level FlightAware Approximate
11:33AM 60.8774 -36.1647 247° West  Level FlightAware Approximate
11:34AM 60.8293 -36.3939 247° West  Level FlightAware Approximate
11:35AM 60.7808 -36.6224 247° West  Level FlightAware Approximate
11:36AM 60.7320 -36.8502 246° West  Level FlightAware Approximate
11:37AM 60.6828 -37.0774 246° West  Level FlightAware Approximate
11:38AM 60.6331 -37.3038 246° West  Level FlightAware Approximate
11:39AM 60.5831 -37.5295 246° West  Level FlightAware Approximate
11:40AM 60.5327 -37.7546 246° West  Level FlightAware Approximate
11:41AM 60.4820 -37.9789 245° Southwest  Level FlightAware Approximate
11:42AM 60.4308 -38.2025 245° Southwest  Level FlightAware Approximate
11:43AM 60.3793 -38.4255 245° Southwest  Level FlightAware Approximate
11:44AM 60.3274 -38.6477 245° Southwest  Level FlightAware Approximate
11:45AM 60.2752 -38.8692 245° Southwest  Level FlightAware Approximate
11:46AM 60.2226 -39.0900 244° Southwest  Level FlightAware Approximate
11:47AM 60.1696 -39.3101 244° Southwest  Level FlightAware Approximate
11:48AM 60.1162 -39.5295 244° Southwest  Level FlightAware Approximate
11:49AM 60.0625 -39.7481 244° Southwest  Level FlightAware Approximate
11:50AM 60.0085 -39.9661 244° Southwest  Level FlightAware Approximate
11:51AM 59.9432 -40.1707 236° Southwest  Level FlightAware Approximate
11:52AM 59.8756 -40.3722 236° Southwest  Level FlightAware Approximate
11:53AM 59.8077 -40.5729 236° Southwest  Level FlightAware Approximate
11:54AM 59.7395 -40.7727 236° Southwest  Level FlightAware Approximate
11:55AM 59.6710 -40.9718 236° Southwest  Level FlightAware Approximate
11:56AM 59.6022 -41.1700 236° Southwest  Level FlightAware Approximate
11:57AM 59.5331 -41.3674 236° Southwest  Level FlightAware Approximate
11:58AM 59.4651 -41.5659 236° Southwest  Level FlightAware Approximate
11:59AM 59.3968 -41.7637 236° Southwest  Level FlightAware Approximate
12:00PM 59.3282 -41.9606 236° Southwest  Level FlightAware Approximate
12:01PM 59.2594 -42.1567 236° Southwest  Level FlightAware Approximate
12:02PM 59.1902 -42.3521 235° Southwest  Level FlightAware Approximate
12:03PM 59.1207 -42.5466 235° Southwest  Level FlightAware Approximate
12:04PM 59.0510 -42.7404 235° Southwest  Level FlightAware Approximate
12:05PM 58.9809 -42.9333 235° Southwest  Level FlightAware Approximate
12:06PM 58.9106 -43.1255 235° Southwest  Level FlightAware Approximate
12:07PM 58.8400 -43.3169 235° Southwest  Level FlightAware Approximate
12:08PM 58.7691 -43.5076 234° Southwest  Level FlightAware Approximate
12:09PM 58.6979 -43.6974 234° Southwest  Level FlightAware Approximate
12:10PM 58.6265 -43.8865 234° Southwest  Level FlightAware Approximate
12:11PM 58.5546 -44.0746 234° Southwest  Level FlightAware Approximate
12:12PM 58.4823 -44.2616 234° Southwest  Level FlightAware Approximate
12:13PM 58.4096 -44.4478 233° Southwest  Level FlightAware Approximate
12:14PM 58.3367 -44.6333 233° Southwest  Level FlightAware Approximate
12:15PM 58.2635 -44.8180 233° Southwest  Level FlightAware Approximate
12:16PM 58.1901 -45.0019 233° Southwest  Level FlightAware Approximate
12:17PM 58.1164 -45.1851 233° Southwest  Level FlightAware Approximate
12:18PM 58.0429 -45.3681 233° Southwest  Level FlightAware Approximate
12:19PM 57.9695 -45.5510 233° Southwest  Level FlightAware Approximate
12:20PM 57.8958 -45.7332 233° Southwest  Level FlightAware Approximate
12:21PM 57.8219 -45.9146 233° Southwest  Level FlightAware Approximate
12:22PM 57.7478 -46.0952 232° Southwest  Level FlightAware Approximate
12:23PM 57.6734 -46.2752 232° Southwest  Level FlightAware Approximate
12:24PM 57.5987 -46.4543 232° Southwest  Level FlightAware Approximate
12:25PM 57.5238 -46.6328 232° Southwest  Level FlightAware Approximate
12:26PM 57.4486 -46.8105 232° Southwest  Level FlightAware Approximate
12:27PM 57.3732 -46.9875 232° Southwest  Level FlightAware Approximate
12:28PM 57.2975 -47.1637 232° Southwest  Level FlightAware Approximate
12:29PM 57.2216 -47.3393 231° Southwest  Level FlightAware Approximate
12:30PM 57.1455 -47.5141 231° Southwest  Level FlightAware Approximate
12:31PM 57.0691 -47.6881 231° Southwest  Level FlightAware Approximate
12:32PM 56.9924 -47.8615 231° Southwest  Level FlightAware Approximate
12:33PM 56.9155 -48.0342 231° Southwest  Level FlightAware Approximate
12:34PM 56.8384 -48.2061 231° Southwest  Level FlightAware Approximate
12:35PM 56.7611 -48.3774 231° Southwest  Level FlightAware Approximate
12:36PM 56.6835 -48.5479 230° Southwest  Level FlightAware Approximate
12:37PM 56.6057 -48.7177 230° Southwest  Level FlightAware Approximate
12:38PM 56.5276 -48.8869 230° Southwest  Level FlightAware Approximate
12:39PM 56.4494 -49.0553 230° Southwest  Level FlightAware Approximate
12:40PM 56.3709 -49.2230 230° Southwest  Level FlightAware Approximate
12:41PM 56.2921 -49.3901 230° Southwest  Level FlightAware Approximate
12:42PM 56.2132 -49.5564 230° Southwest  Level FlightAware Approximate
12:43PM 56.1340 -49.7221 229° Southwest  Level FlightAware Approximate
12:44PM 56.0546 -49.8871 229° Southwest  Level FlightAware Approximate
12:45PM 55.9711 -50.0443 221° Southwest  Level FlightAware Approximate
12:46PM 55.8787 -50.1853 221° Southwest  Level FlightAware Approximate
12:47PM 55.7862 -50.3257 220° Southwest  Level FlightAware Approximate
12:48PM 55.6935 -50.4654 220° Southwest  Level FlightAware Approximate
12:49PM 55.6007 -50.6044 220° Southwest  Level FlightAware Approximate
12:50PM 55.5077 -50.7428 220° Southwest  Level FlightAware Approximate
12:51PM 55.4145 -50.8805 220° Southwest  Level FlightAware Approximate
12:52PM 55.3212 -51.0175 220° Southwest  Level FlightAware Approximate
12:53PM 55.2277 -51.1540 220° Southwest  Level FlightAware Approximate
12:54PM 55.1341 -51.2897 220° Southwest  Level FlightAware Approximate
12:55PM 55.0404 -51.4249 220° Southwest  Level FlightAware Approximate
12:56PM 54.9465 -51.5594 219° Southwest  Level FlightAware Approximate
12:57PM 54.8524 -51.6933 219° Southwest  Level FlightAware Approximate
12:58PM 54.7582 -51.8265 219° Southwest  Level FlightAware Approximate
12:59PM 54.6638 -51.9592 219° Southwest  Level FlightAware Approximate
01:00PM 54.5693 -52.0912 219° Southwest  Level FlightAware Approximate
01:01PM 54.4747 -52.2226 219° Southwest  Level FlightAware Approximate
01:02PM 54.3799 -52.3535 219° Southwest  Level FlightAware Approximate
01:03PM 54.2850 -52.4837 219° Southwest  Level FlightAware Approximate
01:04PM 54.1899 -52.6133 219° Southwest  Level FlightAware Approximate
01:05PM 54.0947 -52.7423 218° Southwest  Level FlightAware Approximate
01:06PM 53.9994 -52.8707 218° Southwest  Level FlightAware Approximate
01:07PM 53.9039 -52.9985 218° Southwest  Level FlightAware Approximate
01:07PM 53.4167 -53.5833 218° Southwest 410 472 34,000  Level Gander Center
01:08PM 53.8083 -53.1258 218° Southwest  Level FlightAware Approximate
01:08PM 53.3333 -53.7167 224° Southwest 410 472 34,000  Level Gander Center
01:09PM 53.7126 -53.2524 218° Southwest  Level FlightAware Approximate
01:09PM 53.2333 -53.8167 211° Southwest 410 472 34,000  Level Gander Center
01:10PM 53.6167 -53.3785 218° Southwest  Level FlightAware Approximate
01:10PM 53.1500 -53.9333 220° Southwest 410 472 34,000  Level Gander Center
01:11PM 53.5207 -53.5041 218° Southwest  Level FlightAware Approximate
01:11PM 53.0667 -54.0667 224° Southwest 410 472 34,000  Level Gander Center
01:12PM 53.4245 -53.6290 218° Southwest  Level FlightAware Approximate
01:12PM 53.0000 -54.2167 234° Southwest 400 460 35,300  Level Gander Center
01:13PM 52.9333 -54.3333 227° Southwest 400 460 36,000 300 Climbing Gander Center
01:14PM 52.8500 -54.5000 230° Southwest 390 449 36,000  Level Gander Center
01:15PM 52.7833 -54.6500 234° Southwest 390 449 36,000  Level Gander Center
01:16PM 52.7000 -54.7667 220° Southwest 390 449 36,000  Level Gander Center
01:17PM 52.6333 -54.9167 234° Southwest 390 449 36,000  Level Gander Center
01:18PM 52.5667 -55.0333 227° Southwest 390 449 36,000  Level Gander Center
01:19PM 52.4833 -55.1833 228° Southwest 390 449 36,000  Level Gander Center
01:20PM 52.4333 -55.3000 235° Southwest 390 449 36,000  Level Gander Center
01:21PM 52.3500 -55.4500 228° Southwest 390 449 36,000  Level Gander Center
01:22PM 52.2667 -55.5667 221° Southwest 390 449 36,000  Level Gander Center
01:23PM 52.2167 -55.7167 241° Southwest 380 437 36,000  Level Gander Center
01:24PM 52.1333 -55.8333 221° Southwest 390 449 36,000  Level Gander Center
01:25PM 52.0500 -55.9833 228° Southwest 390 449 36,000  Level Gander Center
01:26PM 52.0000 -56.1000 235° Southwest 390 449 36,000  Level Gander Center
01:27PM 51.9167 -56.2333 225° Southwest 380 437 36,000  Level Gander Center
01:28PM 51.8333 -56.3500 221° Southwest 390 449 36,000  Level Gander Center
01:29PM 51.7833 -56.5000 242° Southwest 380 437 36,000  Level Gander Center
01:30PM 51.7000 -56.6167 221° Southwest 380 437 36,000  Level Gander Center
01:31PM 51.6333 -56.7333 227° Southwest 380 437 36,000  Level Gander Center
01:32PM 51.5500 -56.8667 225° Southwest 390 449 36,000  Level Gander Center
01:33PM 51.5000 -56.9833 235° Southwest 370 426 36,000  Level Gander Center
01:34PM 51.4167 -57.1000 221° Southwest 380 437 36,000  Level Gander Center
01:35PM 51.3333 -57.2333 225° Southwest 380 437 36,000  Level Gander Center
01:36PM 51.2667 -57.3500 228° Southwest 380 437 36,000  Level Gander Center
01:37PM 51.2000 -57.5000 235° Southwest 370 426 36,000  Level Gander Center
01:38PM 51.1333 -57.6000 223° Southwest 380 437 36,000  Level Gander Center
01:39PM 51.0500 -57.7500 229° Southwest 380 437 36,000  Level Gander Center
01:40PM 50.9833 -57.8500 223° Southwest 380 437 36,000  Level Gander Center
01:45PM 50.5910 -58.5440 223° Southwest 386 444 36,000  Level FlightAware
01:46PM 50.5240 -58.6540 226° Southwest 386 444 36,000  Level FlightAware
01:47PM 50.4820 -58.7210 225° Southwest 386 444 36,000  Level FlightAware
01:47PM 50.4220 -58.8180 226° Southwest 386 444 36,000  Level FlightAware
01:48PM 50.3680 -58.9050 226° Southwest 388 447 36,000  Level FlightAware
01:49PM 50.3390 -58.9500 225° Southwest 388 447 36,000  Level FlightAware
01:50PM 50.2630 -59.0710 226° Southwest 388 447 36,000  Level FlightAware
01:51PM 50.1990 -59.1740 226° Southwest 388 447 36,000  Level FlightAware
01:51PM 50.1460 -59.2560 225° Southwest 388 447 36,000  Level FlightAware
01:52PM 50.1080 -59.3170 226° Southwest 388 447 36,000  Level FlightAware
01:53PM 50.0430 -59.4170 225° Southwest 388 447 36,000  Level FlightAware
01:54PM 50.0040 -59.4780 225° Southwest 388 447 36,000  Level FlightAware
01:54PM 49.9620 -59.5430 225° Southwest 388 447 36,000  Level FlightAware
01:55PM 49.9230 -59.6040 225° Southwest 388 447 36,000  Level FlightAware
01:56PM 49.8710 -59.6840 225° Southwest 388 447 36,000  Level FlightAware
01:56PM 49.8260 -59.7540 225° Southwest 388 447 36,000  Level FlightAware
01:57PM 49.7740 -59.8350 225° Southwest 388 447 36,000  Level FlightAware
01:58PM 49.7330 -59.8980 225° Southwest 388 447 36,000  Level FlightAware
01:59PM 49.6810 -59.9780 225° Southwest 388 447 36,000  Level FlightAware
01:59PM 49.6430 -60.0360 225° Southwest 388 447 36,000  Level FlightAware
02:00PM 49.6060 -60.0950 226° Southwest 388 447 36,000  Level FlightAware
02:01PM 49.4000 -60.3833 226° Southwest 400 460 36,000  Level Gander Center
02:02PM 49.3167 -60.5167 226° Southwest 400 460 36,000  Level Gander Center
02:03PM 49.2333 -60.6167 218° Southwest 400 460 36,000  Level Gander Center
02:04PM 49.1500 -60.7500 226° Southwest 400 460 36,000  Level Gander Center
02:05PM 49.0833 -60.8500 225° Southwest 390 449 36,000  Level Gander Center
02:06PM 49.0000 -60.9833 226° Southwest 400 460 36,000  Level Gander Center
02:07PM 48.9167 -61.0833 218° Southwest 400 460 36,000  Level Gander Center
02:08PM 48.8333 -61.2000 223° Southwest 390 449 36,000  Level Gander Center
02:09PM 48.7667 -61.3333 233° Southwest 400 460 36,000  Level Gander Center
02:10PM 48.6833 -61.4333 218° Southwest 400 460 36,000  Level Gander Center
02:11PM 48.6000 -61.5667 227° Southwest 390 449 36,000  Level Gander Center
02:12PM 48.5333 -61.6667 225° Southwest 400 460 36,000  Level Gander Center
02:13PM 48.4500 -61.7833 223° Southwest 390 449 36,000  Level Gander Center
02:14PM 48.3667 -61.8833 219° Southwest 400 460 36,000  Level Gander Center
02:15PM 48.2833 -62.0167 227° Southwest 400 460 36,000  Level Gander Center
02:16PM 48.2167 -62.1333 229° Southwest 400 460 36,000  Level Gander Center
02:17PM 48.1333 -62.2500 223° Southwest 400 460 36,000  Level Gander Center
02:18PM 48.0500 -62.3500 219° Southwest 410 472 36,000  Level Gander Center
02:19PM 47.9500 -62.4833 222° Southwest 400 460 36,000  Level Gander Center
02:20PM 47.8667 -62.5833 219° Southwest 400 460 36,000  Level Gander Center
02:21PM 47.7833 -62.7000 223° Southwest 410 472 36,000  Level Gander Center
02:22PM 47.7000 -62.8167 223° Southwest 410 472 36,000  Level Gander Center
02:23PM 47.6167 -62.9500 227° Southwest 410 472 36,000  Level Gander Center
02:24PM 47.5500 -63.0333 220° Southwest 410 472 36,000  Level Gander Center
02:25PM 47.4500 -63.1667 222° Southwest 410 472 36,000  Level Gander Center
02:26PM 47.3500 -63.3167 225° Southwest 410 472 36,000  Level Moncton Center
02:27PM 47.2667 -63.4333 224° Southwest 410 472 36,000  Level Moncton Center
02:29PM 47.1167 -63.6167 220° Southwest 410 472 36,000  Level Gander Center
02:30PM 47.0333 -63.7333 224° Southwest 410 472 36,000  Level Gander Center
02:31PM 46.9500 -63.8333 219° Southwest 420 483 36,000  Level Gander Center
02:32PM 46.8667 -63.9500 224° Southwest 410 472 36,000  Level Gander Center
02:33PM 46.7833 -64.0667 224° Southwest 420 483 36,000  Level Gander Center
02:34PM 46.6833 -64.1833 219° Southwest 410 472 36,000  Level Gander Center
02:35PM 46.6000 -64.3000 224° Southwest 420 483 36,000  Level Gander Center
02:36PM 46.5167 -64.4167 224° Southwest 420 483 36,000  Level Gander Center
02:37PM 46.4333 -64.5000 215° Southwest 410 472 36,000  Level Gander Center
02:42PM 45.9730 -65.1220 215° Southwest 418 481 36,000  Level FlightAware
02:43PM 45.9180 -65.1910 221° Southwest 418 481 36,000  Level FlightAware
02:44PM 45.8550 -65.2700 221° Southwest 418 481 36,000  Level FlightAware
02:44PM 45.7990 -65.3390 221° Southwest 421 484 36,000  Level FlightAware
02:45PM 45.7090 -65.4510 221° Southwest 422 486 36,000  Level FlightAware
02:46PM 45.6250 -65.5540 221° Southwest 424 488 36,000  Level FlightAware
02:47PM 45.5660 -65.6270 221° Southwest 426 490 36,000  Level FlightAware
02:48PM 45.4970 -65.7110 220° Southwest 427 491 36,000  Level FlightAware
02:48PM 45.4370 -65.7850 221° Southwest 426 490 36,000  Level FlightAware
02:49PM 45.3720 -65.8630 220° Southwest 425 489 36,000  Level FlightAware
02:50PM 45.3090 -65.9410 221° Southwest 422 486 36,000  Level FlightAware
02:50PM 45.2630 -65.9960 220° Southwest 422 486 36,000  Level FlightAware
02:51PM 45.1960 -66.0770 220° Southwest 422 486 36,000  Level FlightAware
02:52PM 45.1370 -66.1480 220° Southwest 424 488 36,000  Level FlightAware
02:52PM 45.0680 -66.2310 220° Southwest 426 490 36,000  Level FlightAware
02:53PM 45.0160 -66.2930 220° Southwest 427 491 36,000  Level FlightAware
02:53PM 44.9750 -66.3420 220° Southwest 429 494 36,000  Level FlightAware
02:54PM 44.8980 -66.4330 220° Southwest 429 494 36,000  Level FlightAware
02:55PM 44.8280 -66.5170 220° Southwest 427 491 36,000  Level FlightAware
02:56PM 44.7560 -66.6020 220° Southwest 427 491 36,000  Level FlightAware
02:57PM 44.6910 -66.6790 220° Southwest 426 490 36,000  Level FlightAware
02:57PM 44.6380 -66.7410 220° Southwest 428 493 36,000  Level FlightAware
02:58PM 44.5870 -66.8010 220° Southwest 428 493 36,000  Level FlightAware
02:59PM 44.5230 -66.8760 220° Southwest 430 495 36,000  Level FlightAware
02:59PM 44.4740 -66.9330 220° Southwest 431 496 36,000  Level FlightAware
03:00PM 44.3960 -67.0270 221° Southwest 430 495 36,000  Level FlightAware
03:01PM 44.3170 -67.1370 225° Southwest 429 494 36,000  Level FlightAware
03:01PM 44.2550 -67.2220 224° Southwest 429 494 36,000  Level FlightAware
03:02PM 44.1950 -67.3040 224° Southwest 427 491 36,000  Level FlightAware
03:03PM 44.1370 -67.3830 224° Southwest 428 493 36,000  Level FlightAware
03:04PM 44.0690 -67.4750 224° Southwest 429 494 36,000  Level FlightAware
03:04PM 44.0170 -67.5450 224° Southwest 430 495 36,000  Level FlightAware
03:05PM 43.9610 -67.6210 224° Southwest 430 495 36,000  Level FlightAware
03:06PM 43.8830 -67.7260 224° Southwest 432 497 36,000  Level FlightAware
03:07PM 43.7900 -67.8510 224° Southwest 432 497 36,000  Level FlightAware
03:08PM 43.7470 -67.9080 224° Southwest 431 496 36,000  Level FlightAware
03:08PM 43.6970 -67.9760 225° Southwest 431 496 36,000  Level FlightAware
03:09PM 43.6100 -68.0920 224° Southwest 427 491 36,000  Level FlightAware
03:10PM 43.5550 -68.1640 224° Southwest 425 489 36,000  Level FlightAware
03:10PM 43.4900 -68.2500 224° Southwest 429 494 36,000  Level FlightAware
03:11PM 43.4060 -68.3610 224° Southwest 430 495 36,000  Level FlightAware
03:12PM 43.3780 -68.3980 224° Southwest 430 495 36,000  Level FlightAware
03:13PM 43.3240 -68.4680 223° Southwest 434 499 36,000  Level FlightAware
03:13PM 43.2800 -68.5260 224° Southwest 434 499 36,000  Level FlightAware
03:14PM 43.2040 -68.6250 224° Southwest 434 499 36,000  Level FlightAware
03:14PM 43.1410 -68.7070 224° Southwest 433 498 36,000  Level FlightAware
03:15PM 43.0670 -68.8020 223° Southwest 427 491 36,000  Level FlightAware
03:16PM 42.9940 -68.8970 224° Southwest 427 491 36,000  Level FlightAware
03:17PM 42.8990 -69.0180 223° Southwest 437 503 36,000  Level FlightAware
03:18PM 42.8530 -69.0770 223° Southwest 440 506 36,000  Level FlightAware
03:19PM 42.7850 -69.1640 223° Southwest 441 507 36,000  Level FlightAware
03:19PM 42.7210 -69.2450 223° Southwest 440 506 36,000  Level FlightAware
03:20PM 42.6800 -69.2980 224° Southwest 440 506 36,000  Level FlightAware
03:21PM 42.5910 -69.4100 223° Southwest 440 506 36,000  Level FlightAware
03:21PM 42.5440 -69.4700 223° Southwest 441 507 36,000  Level FlightAware
03:22PM 42.4410 -69.6000 223° Southwest 443 510 36,000  Level FlightAware
03:23PM 42.3660 -69.6930 223° Southwest 441 507 36,000  Level FlightAware
03:24PM 42.3150 -69.7570 223° Southwest 443 510 36,000  Level FlightAware
03:24PM 42.2540 -69.8330 223° Southwest 442 509 36,000  Level FlightAware
03:25PM 42.2010 -69.8990 223° Southwest 443 510 36,000  Level FlightAware
03:26PM 42.1340 -69.9820 223° Southwest 440 506 36,000  Level FlightAware
03:26PM 42.0870 -70.0400 222° Southwest 442 509 36,000  Level FlightAware
03:27PM 42.0270 -70.1140 223° Southwest 444 511 36,000  Level FlightAware
03:28PM 41.9130 -70.2580 223° Southwest 445 512 36,000  Level FlightAware
03:29PM 41.8540 -70.3560 231° Southwest 450 518 36,000  Level FlightAware
03:30PM 41.7980 -70.4560 233° Southwest 451 519 36,000  Level FlightAware
03:31PM 41.7240 -70.5840 232° Southwest 446 513 36,000  Level FlightAware
03:31PM 41.6690 -70.6770 232° Southwest 446 513 36,000  Level FlightAware
03:32PM 41.6050 -70.7860 232° Southwest 450 518 36,000  Level FlightAware
03:33PM 41.5510 -70.8780 232° Southwest 450 518 36,000  Level FlightAware
03:34PM 41.4950 -70.9730 232° Southwest 446 513 36,000  Level FlightAware
03:34PM 41.4380 -71.0700 232° Southwest 449 517 36,000  Level FlightAware
03:35PM 41.3930 -71.1460 232° Southwest 449 517 36,000  Level FlightAware
03:36PM 41.3290 -71.2530 231° Southwest 447 514 36,000  Level FlightAware
03:37PM 41.2710 -71.3510 232° Southwest 446 513 36,000  Level FlightAware
03:37PM 41.2290 -71.4200 231° Southwest 446 513 36,000  Level FlightAware
03:38PM 41.1430 -71.5640 232° Southwest 444 511 36,000  Level FlightAware
03:39PM 41.0780 -71.6720 231° Southwest 439 505 36,000  Level FlightAware
03:40PM 41.0290 -71.7480 229° Southwest 440 506 36,000  Level FlightAware
03:40PM 40.9690 -71.8300 226° Southwest 440 506 36,000  Level FlightAware
03:41PM 40.9230 -71.8930 226° Southwest 440 506 36,000  Level FlightAware
03:41PM 40.8677 -71.9688 226° Southwest 441 507 36,000  Level FlightAware ADS-B
03:42PM 40.8153 -72.0404 226° Southwest 440 506 36,000  Level FlightAware ADS-B
03:43PM 40.7605 -72.1152 226° Southwest 440 506 36,000  Level FlightAware ADS-B
03:44PM 40.6751 -72.2311 226° Southwest 443 510 36,000  Level FlightAware ADS-B
03:44PM 40.6150 -72.3120 226° Southwest 443 510 36,000  Level FlightAware
03:45PM 40.5942 -72.3408 226° Southwest 444 511 36,000  Level FlightAware ADS-B
03:45PM 40.5449 -72.4073 226° Southwest 443 510 36,000  Level FlightAware ADS-B
03:46PM 40.4914 -72.4793 226° Southwest 441 507 36,000  Level FlightAware ADS-B
03:46PM 40.4409 -72.5472 226° Southwest 439 505 36,000  Level FlightAware ADS-B
03:47PM 40.3900 -72.6160 226° Southwest 437 503 36,000  Level FlightAware
03:48PM 40.3288 -72.6971 225° Southwest 438 504 36,000  Level FlightAware ADS-B
03:48PM 40.2816 -72.7600 225° Southwest 438 504 36,000  Level FlightAware ADS-B
03:49PM 40.2367 -72.8198 225° Southwest 440 506 36,000  Level FlightAware ADS-B
03:49PM 40.1929 -72.8781 225° Southwest 441 507 36,000  Level FlightAware ADS-B
03:50PM 40.1489 -72.9363 225° Southwest 442 509 36,000  Level FlightAware ADS-B
03:50PM 40.1009 -72.9999 225° Southwest 442 509 36,000  Level FlightAware ADS-B
03:51PM 40.0522 -73.0641 225° Southwest 442 509 36,000  Level FlightAware ADS-B
03:52PM 39.9980 -73.1355 225° Southwest 441 507 36,000  Level FlightAware ADS-B
03:52PM 39.9536 -73.1938 225° Southwest 441 507 36,000  Level FlightAware ADS-B
03:53PM 39.9079 -73.2538 225° Southwest 443 510 36,000  Level FlightAware ADS-B
03:53PM 39.8629 -73.3126 225° Southwest 444 511 36,000  Level FlightAware ADS-B
03:54PM 39.8187 -73.3704 225° Southwest 445 512 36,000  Level FlightAware ADS-B
03:54PM 39.7742 -73.4284 225° Southwest 448 516 36,000  Level FlightAware ADS-B
03:55PM 39.7234 -73.4945 225° Southwest 448 516 36,000  Level FlightAware ADS-B
03:55PM 39.6797 -73.5513 225° Southwest 448 516 36,000  Level FlightAware ADS-B
03:56PM 39.6318 -73.6132 225° Southwest 448 516 36,000  Level FlightAware ADS-B
03:56PM 39.6167 -73.6307 222° Southwest 449 517 36,000  Level FlightAware ADS-B
03:56PM 39.6065 -73.6410 218° Southwest 450 518 36,000  Level FlightAware ADS-B
03:57PM 39.5516 -73.6888 214° Southwest 451 519 36,000  Level FlightAware ADS-B
03:57PM 39.4991 -73.7347 214° Southwest 452 520 36,000  Level FlightAware ADS-B
03:58PM 39.4459 -73.7812 214° Southwest 452 520 36,000  Level FlightAware ADS-B
03:58PM 39.3923 -73.8278 214° Southwest 452 520 36,000  Level FlightAware ADS-B
03:59PM 39.3384 -73.8746 214° Southwest 452 520 36,000  Level FlightAware ADS-B
03:59PM 39.2863 -73.9199 214° Southwest 452 520 36,000  Level FlightAware ADS-B
04:00PM 39.2341 -73.9651 214° Southwest 452 520 36,000  Level FlightAware ADS-B
04:00PM 39.1792 -74.0126 214° Southwest 453 521 36,000  Level FlightAware ADS-B
04:01PM 39.1256 -74.0590 214° Southwest 455 524 36,000  Level FlightAware ADS-B
04:01PM 39.0727 -74.1044 214° Southwest 458 527 36,000  Level FlightAware ADS-B
04:02PM 39.0178 -74.1518 214° Southwest 461 531 36,000  Level FlightAware ADS-B
04:02PM 38.9641 -74.1978 214° Southwest 461 531 36,000  Level FlightAware ADS-B
04:03PM 38.8994 -74.2532 214° Southwest 462 532 36,000  Level FlightAware ADS-B
04:03PM 38.8464 -74.2985 214° Southwest 462 532 36,000  Level FlightAware ADS-B
04:04PM 38.7834 -74.3523 214° Southwest 463 533 36,000  Level FlightAware ADS-B
04:05PM 38.7262 -74.4010 214° Southwest 465 535 36,000  Level FlightAware ADS-B
04:05PM 38.6662 -74.4519 214° Southwest 465 535 36,000  Level FlightAware ADS-B
04:06PM 38.6082 -74.5012 214° Southwest 465 535 36,000  Level FlightAware ADS-B
04:06PM 38.5513 -74.5494 214° Southwest 465 535 36,000  Level FlightAware ADS-B
04:07PM 38.4656 -74.6218 213° Southwest 463 533 36,000  Level FlightAware ADS-B
04:07PM 38.4114 -74.6674 213° Southwest 464 534 36,000  Level FlightAware ADS-B
04:08PM 38.3545 -74.7154 213° Southwest 465 535 36,000  Level FlightAware ADS-B
04:08PM 38.3002 -74.7609 213° Southwest 466 536 36,000  Level FlightAware ADS-B
04:09PM 38.2453 -74.8070 213° Southwest 466 536 36,000  Level FlightAware ADS-B
04:10PM 38.1501 -74.8866 213° Southwest 467 537 36,000  Level FlightAware ADS-B
04:10PM 38.0943 -74.9331 213° Southwest 466 536 36,000  Level FlightAware ADS-B
04:11PM 38.0420 -74.9767 213° Southwest 466 536 36,000  Level FlightAware ADS-B
04:11PM 37.9860 -75.0232 213° Southwest 467 537 36,000  Level FlightAware ADS-B
04:12PM 37.9200 -75.0779 213° Southwest 468 539 36,000  Level FlightAware ADS-B
04:13PM 37.8293 -75.1530 213° Southwest 468 539 36,000  Level FlightAware ADS-B
04:13PM 37.7738 -75.1988 213° Southwest 470 541 36,000  Level FlightAware ADS-B
04:14PM 37.7195 -75.2435 213° Southwest 470 541 36,000  Level FlightAware ADS-B
04:14PM 37.6638 -75.2893 213° Southwest 472 543 36,000  Level FlightAware ADS-B
04:15PM 37.6050 -75.3376 213° Southwest 472 543 36,000  Level FlightAware ADS-B
04:15PM 37.5492 -75.3832 213° Southwest 471 542 36,000  Level FlightAware ADS-B
04:16PM 37.4643 -75.4527 213° Southwest 471 542 36,000  Level FlightAware ADS-B
04:17PM 37.3940 -75.5100 213° Southwest 464 534 36,000  Level FlightAware
04:18PM 37.3280 -75.5640 213° Southwest 464 534 36,000  Level FlightAware
04:18PM 37.2270 -75.6450 213° Southwest 465 535 36,000  Level FlightAware
04:19PM 37.2055 -75.6630 214° Southwest 473 544 36,000  Level FlightAware ADS-B
04:19PM 37.1479 -75.7097 213° Southwest 473 544 36,000  Level FlightAware ADS-B
04:20PM 37.0910 -75.7555 213° Southwest 474 545 36,000  Level FlightAware ADS-B
04:20PM 37.0309 -75.8040 213° Southwest 475 547 36,000  Level FlightAware ADS-B
04:21PM 36.9300 -75.8840 212° Southwest 477 549 36,000  Level FlightAware
04:23PM 36.7830 -76.0030 213° Southwest 466 536 36,000  Level FlightAware
04:24PM 36.6560 -76.1040 213° Southwest 477 549 36,000  Level FlightAware
04:24PM 36.6140 -76.1374 213° Southwest 479 551 36,000  Level FlightAware ADS-B
04:25PM 36.5070 -76.2220 212° Southwest 479 551 36,000  Level FlightAware
04:26PM 36.4250 -76.2870 213° Southwest 478 550 36,000  Level FlightAware
04:27PM 36.3280 -76.3630 212° Southwest 478 550 36,000  Level FlightAware
04:27PM 36.2360 -76.4360 213° Southwest 476 548 36,000  Level FlightAware
04:28PM 36.1110 -76.5330 212° Southwest 478 550 36,000  Level FlightAware
04:29PM 36.0110 -76.6110 212° Southwest 478 550 36,000  Level FlightAware
04:30PM 35.9730 -76.6410 213° Southwest 478 550 36,000  Level FlightAware
04:31PM 35.8970 -76.7000 212° Southwest 478 550 36,000  Level FlightAware
04:31PM 35.8390 -76.7440 212° Southwest 478 550 36,000  Level FlightAware
04:32PM 35.7640 -76.8020 212° Southwest 478 550 36,000  Level FlightAware
04:33PM 35.7040 -76.8490 212° Southwest 478 550 36,000  Level FlightAware
04:33PM 35.6370 -76.9000 212° Southwest 478 550 36,000  Level FlightAware
04:34PM 35.5540 -76.9640 212° Southwest 478 550 36,000  Level FlightAware
04:35PM 35.4960 -77.0080 212° Southwest 478 550 36,000  Level FlightAware
04:35PM 35.4390 -77.0520 212° Southwest 478 550 36,000  Level FlightAware
04:36PM 35.3610 -77.1120 212° Southwest 478 550 36,000  Level FlightAware
04:37PM 35.3020 -77.1570 212° Southwest 478 550 36,000  Level FlightAware
04:38PM 35.2240 -77.2170 212° Southwest 478 550 36,000  Level FlightAware
04:38PM 35.1680 -77.2590 212° Southwest 478 550 36,000  Level FlightAware
04:39PM 34.9064 -77.4561 212° Southwest 487 560 36,000  Level Washington Center
04:40PM 34.7944 -77.5444 213° Southwest 487 560 36,000  Level Washington Center
04:41PM 34.6742 -77.6150 206° Southwest 482 555 36,000  Level Washington Center
04:46PM 34.0220 -77.8310 206° Southwest 476 548 36,000  Level FlightAware
04:47PM 33.9420 -77.8580 196° South 475 547 36,000  Level FlightAware
04:48PM 33.8390 -77.8930 196° South 472 543 36,000  Level FlightAware
04:48PM 33.7530 -77.9220 196° South 471 542 36,000  Level FlightAware
04:49PM 33.6810 -77.9460 196° South 473 544 36,000  Level FlightAware
04:50PM 33.5800 -77.9790 195° South 475 547 36,000  Level FlightAware
04:50PM 33.6450 -77.9580 15° North 36,000  Level FlightAware
04:51PM 33.4930 -78.0090 196° South 475 547 36,000  Level FlightAware
04:52PM 33.2920 -78.0750 195° South 472 543 36,000  Level FlightAware
04:53PM 33.2130 -78.1010 195° South 470 541 36,000  Level FlightAware
04:53PM 33.1250 -78.1300 195° South 470 541 36,000  Level FlightAware
04:54PM 33.0590 -78.1510 195° South 470 541 36,000  Level FlightAware
04:55PM 32.9620 -78.1840 196° South 474 545 36,000  Level FlightAware
04:55PM 32.8810 -78.2110 196° South 473 544 36,000  Level FlightAware
04:56PM 32.7670 -78.2480 195° South 470 541 36,000  Level FlightAware
04:57PM 32.6740 -78.2780 195° South 470 541 36,000  Level FlightAware
04:58PM 32.5730 -78.3110 195° South 469 540 36,000  Level FlightAware
04:59PM 32.4870 -78.3390 195° South 469 540 36,000  Level FlightAware
04:59PM 32.3910 -78.3710 196° South 471 542 36,000  Level FlightAware
05:00PM 32.3160 -78.3940 195° South 471 542 36,000  Level FlightAware
05:01PM 32.2320 -78.4210 195° South 471 542 36,000  Level FlightAware
05:01PM 32.1710 -78.4400 195° South 471 542 36,000  Level FlightAware
05:02PM 32.0840 -78.4680 195° South 471 542 36,000  Level FlightAware
05:03PM 32.0190 -78.4880 195° South 471 542 36,000  Level FlightAware
05:04PM 31.9320 -78.5160 195° South 471 542 36,000  Level FlightAware
05:04PM 31.8650 -78.5370 195° South 471 542 36,000  Level FlightAware
05:05PM 31.7830 -78.5630 195° South 471 542 36,000  Level FlightAware
05:06PM 31.7150 -78.5840 195° South 471 542 36,000  Level FlightAware
05:06PM 31.6260 -78.6130 196° South 471 542 36,000  Level FlightAware
05:07PM 31.5610 -78.6330 195° South 471 542 36,000  Level FlightAware
05:08PM 31.4750 -78.6600 195° South 471 542 36,000  Level FlightAware
05:08PM 31.4110 -78.6800 195° South 471 542 36,000  Level FlightAware
05:09PM 31.3230 -78.7080 195° South 471 542 36,000  Level FlightAware
05:10PM 31.0422 -78.8022 195° South 479 551 36,000  Level Jacksonville Center
05:11PM 30.9222 -78.8389 195° South 484 557 36,000  Level Jacksonville Center
05:12PM 30.7961 -78.8806 196° South 484 557 36,000  Level Jacksonville Center
05:13PM 30.6639 -78.9200 194° South 479 551 36,000  Level Jacksonville Center
05:14PM 30.5792 -78.9778 210° Southwest 466 536 36,000  Level Miami Center
05:15PM 30.4536 -79.0233 197° South 461 531 36,000  Level Miami Center
05:16PM 30.3181 -79.0350 184° South 467 537 36,000  Level Miami Center
05:17PM 30.1922 -79.0828 198° South 475 547 36,000  Level Miami Center
05:18PM 30.0622 -79.1303 198° South 482 555 36,000  Level Miami Center
05:19PM 29.9256 -79.1897 201° Southwest 482 555 36,000  Level Miami Center
05:20PM 29.7978 -79.2347 197° South 482 555 36,000  Level Miami Center
05:21PM 29.6675 -79.2822 198° South 482 555 36,000  Level Miami Center
05:22PM 29.5458 -79.3319 200° South 482 555 36,000  Level Miami Center
05:23PM 29.4117 -79.3742 195° South 487 560 36,000  Level Miami Center
05:24PM 29.2917 -79.4308 202° Southwest 487 560 36,000  Level Miami Center
05:25PM 29.1656 -79.4778 198° South 487 560 36,000  Level Miami Center
05:26PM 29.0356 -79.5244 197° South 487 560 36,000  Level Miami Center
05:27PM 28.9114 -79.5736 199° South 487 560 36,000  Level Miami Center
05:28PM 28.7833 -79.6203 198° South 487 560 36,000  Level Miami Center
05:29PM 28.6550 -79.6667 198° South 487 560 36,000  Level Miami Center
05:30PM 28.5267 -79.7178 199° South 487 560 36,000  Level Miami Center
05:35PM 27.8130 -79.9810 199° South 36,000  Level FlightAware
05:38PM 27.4790 -80.1040 198° South 36,000  Level FlightAware
05:38PM 27.3960 -80.1350 198° South 478 550 36,000  Level FlightAware
05:39PM 27.3070 -80.1670 198° South 487 560 36,000  Level FlightAware
05:40PM 27.2450 -80.1900 198° South 487 560 36,000  Level FlightAware
05:40PM 27.1800 -80.2140 198° South 487 560 36,000  Level FlightAware
05:41PM 27.0910 -80.2460 198° South 487 560 36,000  Level FlightAware
05:42PM 26.9870 -80.2840 198° South 488 562 36,000  Level FlightAware
05:42PM 26.8790 -80.3230 198° South 475 547 36,000  Level FlightAware
05:43PM 26.7780 -80.3600 198° South 459 528 36,000  Level FlightAware
05:44PM 26.6940 -80.3900 198° South 456 525 36,000  Level FlightAware
05:44PM 26.6040 -80.4230 198° South 456 525 36,000  Level FlightAware
05:45PM 26.5220 -80.4530 198° South 458 527 36,000  Level FlightAware
05:46PM 26.4280 -80.4870 198° South 460 529 36,000  Level FlightAware
05:47PM 26.3460 -80.5130 196° South 462 532 36,000  Level FlightAware
05:47PM 26.2690 -80.5210 185° South 464 534 36,000  Level FlightAware
05:48PM 26.1710 -80.5280 184° South 463 533 36,000  Level FlightAware
05:49PM 26.0820 -80.5340 183° South 471 542 36,000  Level FlightAware
05:49PM 26.0160 -80.5370 182° South 482 555 36,000  Level FlightAware
05:50PM 25.9030 -80.5330 178° South 489 563 36,000  Level FlightAware
05:51PM 25.8070 -80.5220 174° South 483 556 36,000  Level FlightAware
05:51PM 25.7320 -80.5140 175° South 476 548 36,000 -180 Level FlightAware
05:52PM 25.6070 -80.5220 183° South 475 547 35,800 -480 Descending FlightAware
05:53PM 25.5260 -80.5580 202° Southwest 466 536 35,300 -840 Descending FlightAware
05:54PM 25.4340 -80.5990 202° Southwest 471 542 34,600 -960 Descending FlightAware
05:54PM 25.3410 -80.6390 201° Southwest 472 543 33,800 -840 Descending FlightAware
05:55PM 25.2380 -80.6840 202° Southwest 467 537 33,300 -660 Descending FlightAware
05:56PM 25.1670 -80.7150 202° Southwest 469 540 33,000 -240 Descending FlightAware
05:57PM 25.0760 -80.7540 201° Southwest 470 541 33,000  Level FlightAware
05:57PM 24.9860 -80.7940 202° Southwest 465 535 33,000  Level FlightAware
05:58PM 24.8960 -80.8330 201° Southwest 465 535 33,000 -540 Level FlightAware
05:59PM 24.8180 -80.8660 201° Southwest 449 517 32,300 -1,680 Descending FlightAware
05:59PM 24.7260 -80.9060 202° Southwest 447 514 30,600 -1,980 Descending FlightAware
06:00PM 24.6620 -80.9340 202° Southwest 437 503 29,600 -1,800 Descending FlightAware
06:01PM 24.5730 -80.9720 201° Southwest 431 496 28,300 -1,560 Descending FlightAware
06:01PM 24.5220 -80.9940 201° Southwest 417 480 27,500 -1,500 Descending FlightAware
06:02PM 24.4270 -81.0350 201° Southwest 411 473 26,100 -1,500 Descending FlightAware
06:03PM 24.3470 -81.0690 201° Southwest 401 461 25,400 -1,860 Descending FlightAware
06:04PM 24.2670 -81.1030 201° Southwest 412 474 23,600 -2,100 Descending FlightAware
06:04PM 24.2050 -81.1300 202° Southwest 403 464 22,600 -1,680 Descending FlightAware
06:05PM 24.1280 -81.1630 201° Southwest 398 458 21,400 -1,140 Descending FlightAware
06:06PM 24.0590 -81.1920 201° Southwest 378 435 21,000 -300 Descending FlightAware
06:06PM 23.9820 -81.2370 208° Southwest 378 435 21,000  Level FlightAware
06:07PM 23.9350 -81.2920 227° Southwest 382 440 21,000 -420 Level FlightAware
06:08PM 23.8850 -81.3490 226° Southwest 375 432 20,500 -1,740 Descending FlightAware
06:08PM 23.8350 -81.4070 227° Southwest 394 453 18,700 -2,400 Descending FlightAware
06:09PM 23.7840 -81.4640 226° Southwest 385 443 17,300 -1,080 Descending FlightAware
06:10PM 23.7370 -81.5190 227° Southwest 384 442 17,200 -120 Descending FlightAware
06:10PM 23.7000 -81.5620 227° Southwest 384 442 17,200 -3,240 Level FlightAware
06:11PM 23.6320 -81.6370 225° Southwest 376 433 13,100 -3,420 Descending FlightAware
06:12PM 23.5680 -81.7100 226° Southwest 329 379 11,800 -900 Descending FlightAware
06:13PM 23.5240 -81.7590 226° Southwest 307 353 11,500 -240 Descending FlightAware
06:14PM 23.4860 -81.8030 227° Southwest 307 353 11,500  Level FlightAware
06:14PM 23.4520 -81.8410 226° Southwest 307 353 11,500  Level FlightAware
06:17PM 23.2778 -82.0531 228° Southwest  Level FlightAware Approximate
06:18PM 23.1951 -82.1485 226° Southwest  Level FlightAware Approximate
06:19PM 23.1029 -82.2314 212° Southwest  Level FlightAware Approximate
06:20PM 23.0311 -82.3356 223° Southwest  Level FlightAware Approximate
06:21PM 22.9891 -82.4091 223° Southwest  Level Estimated
06:22PM 22.9891 -82.4091 223° Southwest  Level Estimated
06:23PM 22.9891 -82.4091 223° Southwest  Level Estimated
06:24PM 22.9891 -82.4091 223° Southwest  Level Estimated
06:25PM 22.9891 -82.4091 223° Southwest  Level Estimated
06:26PM 22.9891 -82.4091 223° Southwest  Level Estimated
06:27PM 22.9891 -82.4091 223° Southwest  Level Estimated
06:28PM 22.9891 -82.4091 223° Southwest  Level Estimated
06:29PM 22.9891 -82.4091 223° Southwest  Level Estimated
06:30PM 22.9891 -82.4091 223° Southwest  Level Estimated
06:31PM 22.9891 -82.4091 223° Southwest  Level Estimated
06:32PM 22.9891 -82.4091 223° Southwest  Level Estimated
06:33PM 22.9891 -82.4091 223° Southwest  Level Estimated
06:34PM 22.9891 -82.4091 223° Southwest  Level Estimated
06:35PM 22.9891 -82.4091 223° Southwest  Level Estimated